sensor_id;sensor_type;location;lat;lon;timestamp;temperature;humidity
43862;DHT22;29510;52.140;5.034;2023-12-20T00:01:29;6.30;99.90
43862;DHT22;29510;52.140;5.034;2023-12-20T00:11:29;6.30;99.90
43862;DHT22;29510;52.140;5.034;2023-12-20T00:21:30;6.30;99.90
43862;DHT22;29510;52.140;5.034;2023-12-20T00:31:30;6.20;99.90
43862;DHT22;29510;52.140;5.034;2023-12-20T00:41:31;6.20;99.90
43862;DHT22;29510;52.140;5.034;2023-12-20T00:51:31;6.20;99.90
43862;DHT22;29510;52.140;5.034;2023-12-20T01:01:32;6.20;99.90
43862;DHT22;29510;52.140;5.034;2023-12-20T01:11:33;6.30;99.90
43862;DHT22;29510;52.140;5.034;2023-12-20T01:21:34;6.30;99.90
43862;DHT22;29510;52.140;5.034;2023-12-20T01:31:34;6.40;99.90
43862;DHT22;29510;52.140;5.034;2023-12-20T01:41:35;6.50;99.90
43862;DHT22;29510;52.140;5.034;2023-12-20T01:51:36;6.50;99.90
43862;DHT22;29510;52.140;5.034;2023-12-20T02:01:36;6.50;99.90
43862;DHT22;29510;52.140;5.034;2023-12-20T02:11:38;6.70;99.90
43862;DHT22;29510;52.140;5.034;2023-12-20T02:21:38;6.90;99.90
43862;DHT22;29510;52.140;5.034;2023-12-20T02:31:39;7.00;99.90
43862;DHT22;29510;52.140;5.034;2023-12-20T02:41:39;7.30;99.90
43862;DHT22;29510;52.140;5.034;2023-12-20T02:51:40;7.20;99.90
43862;DHT22;29510;52.140;5.034;2023-12-20T03:01:44;7.10;99.90
43862;DHT22;29510;52.140;5.034;2023-12-20T03:11:45;7.20;99.90
43862;DHT22;29510;52.140;5.034;2023-12-20T03:21:45;7.50;99.90
43862;DHT22;29510;52.140;5.034;2023-12-20T03:31:46;7.50;99.00
43862;DHT22;29510;52.140;5.034;2023-12-20T03:41:46;7.50;95.90
43862;DHT22;29510;52.140;5.034;2023-12-20T03:51:47;7.40;97.00
43862;DHT22;29510;52.140;5.034;2023-12-20T04:01:48;7.50;88.90
43862;DHT22;29510;52.140;5.034;2023-12-20T04:11:48;7.40;91.20
43862;DHT22;29510;52.140;5.034;2023-12-20T04:21:49;7.40;90.60
43862;DHT22;29510;52.140;5.034;2023-12-20T04:31:49;7.50;77.10
43862;DHT22;29510;52.140;5.034;2023-12-20T04:41:52;7.60;70.00
43862;DHT22;29510;52.140;5.034;2023-12-20T04:51:52;7.50;75.00
43862;DHT22;29510;52.140;5.034;2023-12-20T05:01:53;7.40;79.70
43862;DHT22;29510;52.140;5.034;2023-12-20T05:11:53;7.50;74.80
43862;DHT22;29510;52.140;5.034;2023-12-20T05:21:54;7.60;61.70
43862;DHT22;29510;52.140;5.034;2023-12-20T05:31:54;7.50;67.00
43862;DHT22;29510;52.140;5.034;2023-12-20T05:41:55;7.60;63.60
43862;DHT22;29510;52.140;5.034;2023-12-20T05:51:55;7.80;54.40
43862;DHT22;29510;52.140;5.034;2023-12-20T06:01:56;7.80;55.30
43862;DHT22;29510;52.140;5.034;2023-12-20T06:11:56;7.80;53.10
43862;DHT22;29510;52.140;5.034;2023-12-20T06:21:57;7.80;54.40
43862;DHT22;29510;52.140;5.034;2023-12-20T06:31:57;8.00;40.10
43862;DHT22;29510;52.140;5.034;2023-12-20T06:41:58;7.90;50.70
43862;DHT22;29510;52.140;5.034;2023-12-20T06:51:58;8.00;43.70
43862;DHT22;29510;52.140;5.034;2023-12-20T07:01:59;8.10;32.70
43862;DHT22;29510;52.140;5.034;2023-12-20T07:12:00;8.10;37.00
43862;DHT22;29510;52.140;5.034;2023-12-20T07:22:00;8.10;39.30
43862;DHT22;29510;52.140;5.034;2023-12-20T07:32:01;8.20;32.50
43862;DHT22;29510;52.140;5.034;2023-12-20T07:42:01;8.30;28.10
43862;DHT22;29510;52.140;5.034;2023-12-20T07:52:02;8.30;27.80
43862;DHT22;29510;52.140;5.034;2023-12-20T08:02:03;8.30;25.70
43862;DHT22;29510;52.140;5.034;2023-12-20T08:12:03;8.30;24.90
43862;DHT22;29510;52.140;5.034;2023-12-20T08:22:04;8.30;29.80
43862;DHT22;29510;52.140;5.034;2023-12-20T08:32:05;8.30;27.30
43862;DHT22;29510;52.140;5.034;2023-12-20T08:42:06;8.30;43.30
43862;DHT22;29510;52.140;5.034;2023-12-20T08:52:07;8.40;36.60
43862;DHT22;29510;52.140;5.034;2023-12-20T09:02:07;8.60;33.10
43862;DHT22;29510;52.140;5.034;2023-12-20T09:12:08;8.70;28.30
43862;DHT22;29510;52.140;5.034;2023-12-20T09:22:09;8.70;26.30
43862;DHT22;29510;52.140;5.034;2023-12-20T09:32:09;8.90;24.00
43862;DHT22;29510;52.140;5.034;2023-12-20T09:42:12;9.00;20.80
43862;DHT22;29510;52.140;5.034;2023-12-20T09:52:15;9.10;16.30
43862;DHT22;29510;52.140;5.034;2023-12-20T10:02:20;9.00;18.00
43862;DHT22;29510;52.140;5.034;2023-12-20T10:12:24;9.10;15.40
43862;DHT22;29510;52.140;5.034;2023-12-20T10:22:26;9.30;12.90
43862;DHT22;29510;52.140;5.034;2023-12-20T10:32:27;9.30;12.70
43862;DHT22;29510;52.140;5.034;2023-12-20T10:42:29;9.40;11.20
43862;DHT22;29510;52.140;5.034;2023-12-20T10:52:32;9.40;9.30
43862;DHT22;29510;52.140;5.034;2023-12-20T11:02:36;9.80;8.40
43862;DHT22;29510;52.140;5.034;2023-12-20T11:12:59;10.10;2.10
43862;DHT22;29510;52.140;5.034;2023-12-20T11:23:01;10.40;1.00
43862;DHT22;29510;52.140;5.034;2023-12-20T11:33:01;10.30;1.00
43862;DHT22;29510;52.140;5.034;2023-12-20T11:43:02;10.00;1.00
43862;DHT22;29510;52.140;5.034;2023-12-20T11:53:04;10.10;1.00
43862;DHT22;29510;52.140;5.034;2023-12-20T12:03:05;10.10;1.00
43862;DHT22;29510;52.140;5.034;2023-12-20T12:13:05;10.10;1.00
43862;DHT22;29510;52.140;5.034;2023-12-20T12:23:06;10.10;1.00
43862;DHT22;29510;52.140;5.034;2023-12-20T12:33:07;10.00;1.00
43862;DHT22;29510;52.140;5.034;2023-12-20T12:43:08;10.10;1.00
43862;DHT22;29510;52.140;5.034;2023-12-20T12:53:08;10.10;1.00
43862;DHT22;29510;52.140;5.034;2023-12-20T13:03:09;10.00;1.00
43862;DHT22;29510;52.140;5.034;2023-12-20T13:13:09;10.00;1.00
43862;DHT22;29510;52.140;5.034;2023-12-20T13:23:10;10.00;1.00
43862;DHT22;29510;52.140;5.034;2023-12-20T13:33:11;10.00;1.00
43862;DHT22;29510;52.140;5.034;2023-12-20T13:43:11;10.00;1.00
43862;DHT22;29510;52.140;5.034;2023-12-20T13:53:13;9.90;1.00
43862;DHT22;29510;52.140;5.034;2023-12-20T14:03:14;9.90;1.00
43862;DHT22;29510;52.140;5.034;2023-12-20T14:13:14;10.00;1.00
43862;DHT22;29510;52.140;5.034;2023-12-20T14:23:15;9.90;1.00
43862;DHT22;29510;52.140;5.034;2023-12-20T14:33:16;9.80;1.00
43862;DHT22;29510;52.140;5.034;2023-12-20T14:43:16;9.90;1.40
43862;DHT22;29510;52.140;5.034;2023-12-20T14:53:17;9.80;4.80
43862;DHT22;29510;52.140;5.034;2023-12-20T15:03:19;9.80;5.50
43862;DHT22;29510;52.140;5.034;2023-12-20T15:13:19;9.70;8.60
43862;DHT22;29510;52.140;5.034;2023-12-20T15:23:20;9.60;14.40
43862;DHT22;29510;52.140;5.034;2023-12-20T15:33:22;9.70;16.20
43862;DHT22;29510;52.140;5.034;2023-12-20T15:43:23;9.80;14.90
43862;DHT22;29510;52.140;5.034;2023-12-20T15:53:24;9.70;21.40
43862;DHT22;29510;52.140;5.034;2023-12-20T16:03:25;9.60;26.10
43862;DHT22;29510;52.140;5.034;2023-12-20T16:13:26;9.60;27.20
43862;DHT22;29510;52.140;5.034;2023-12-20T16:23:27;9.60;31.30
43862;DHT22;29510;52.140;5.034;2023-12-20T16:33:27;9.60;30.10
43862;DHT22;29510;52.140;5.034;2023-12-20T16:43:28;9.60;42.20
43862;DHT22;29510;52.140;5.034;2023-12-20T16:53:29;9.40;74.60
43862;DHT22;29510;52.140;5.034;2023-12-20T17:03:29;9.30;99.90
43862;DHT22;29510;52.140;5.034;2023-12-20T17:13:30;9.20;99.90
43862;DHT22;29510;52.140;5.034;2023-12-20T17:23:34;9.20;99.90
43862;DHT22;29510;52.140;5.034;2023-12-20T17:33:34;9.30;99.90
43862;DHT22;29510;52.140;5.034;2023-12-20T17:43:35;9.40;99.90
43862;DHT22;29510;52.140;5.034;2023-12-20T17:53:35;9.40;99.90
43862;DHT22;29510;52.140;5.034;2023-12-20T18:03:36;9.40;99.90
43862;DHT22;29510;52.140;5.034;2023-12-20T18:13:37;9.40;99.90
43862;DHT22;29510;52.140;5.034;2023-12-20T18:23:38;9.40;99.90
43862;DHT22;29510;52.140;5.034;2023-12-20T18:33:39;9.40;99.90
43862;DHT22;29510;52.140;5.034;2023-12-20T18:43:42;9.40;99.90
43862;DHT22;29510;52.140;5.034;2023-12-20T18:53:43;9.40;99.90
43862;DHT22;29510;52.140;5.034;2023-12-20T19:03:43;9.40;99.90
43862;DHT22;29510;52.140;5.034;2023-12-20T19:13:44;9.40;99.90
43862;DHT22;29510;52.140;5.034;2023-12-20T19:23:45;9.50;99.90
43862;DHT22;29510;52.140;5.034;2023-12-20T19:33:45;9.50;99.90
43862;DHT22;29510;52.140;5.034;2023-12-20T19:43:50;9.40;99.90
43862;DHT22;29510;52.140;5.034;2023-12-20T19:53:52;9.50;99.90
43862;DHT22;29510;52.140;5.034;2023-12-20T20:03:53;9.50;99.90
43862;DHT22;29510;52.140;5.034;2023-12-20T20:13:54;9.60;99.90
43862;DHT22;29510;52.140;5.034;2023-12-20T20:23:56;9.60;99.90
43862;DHT22;29510;52.140;5.034;2023-12-20T20:33:56;9.60;99.90
43862;DHT22;29510;52.140;5.034;2023-12-20T20:43:57;9.70;99.90
43862;DHT22;29510;52.140;5.034;2023-12-20T20:53:57;9.80;99.90
43862;DHT22;29510;52.140;5.034;2023-12-20T21:03:59;9.90;99.90
43862;DHT22;29510;52.140;5.034;2023-12-20T21:14:00;9.90;99.90
43862;DHT22;29510;52.140;5.034;2023-12-20T21:24:00;10.00;99.90
43862;DHT22;29510;52.140;5.034;2023-12-20T21:34:01;10.10;99.90
43862;DHT22;29510;52.140;5.034;2023-12-20T21:44:02;10.10;99.90
43862;DHT22;29510;52.140;5.034;2023-12-20T21:54:02;10.10;99.90
43862;DHT22;29510;52.140;5.034;2023-12-20T22:04:04;10.20;99.90
43862;DHT22;29510;52.140;5.034;2023-12-20T22:14:05;10.20;99.90
43862;DHT22;29510;52.140;5.034;2023-12-20T22:24:05;10.20;99.90
43862;DHT22;29510;52.140;5.034;2023-12-20T22:34:06;10.20;99.90
43862;DHT22;29510;52.140;5.034;2023-12-20T22:44:07;10.30;99.90
43862;DHT22;29510;52.140;5.034;2023-12-20T22:54:08;10.40;99.90
43862;DHT22;29510;52.140;5.034;2023-12-20T23:04:08;10.40;98.80
43862;DHT22;29510;52.140;5.034;2023-12-20T23:14:09;10.40;94.70
43862;DHT22;29510;52.140;5.034;2023-12-20T23:24:09;10.50;93.80
43862;DHT22;29510;52.140;5.034;2023-12-20T23:34:10;10.50;95.20
43862;DHT22;29510;52.140;5.034;2023-12-20T23:44:10;10.50;90.20
43862;DHT22;29510;52.140;5.034;2023-12-20T23:54:11;10.50;90.50
